Skip Navigation Linkwww.weather.gov 
NOAA logo - Select to go to the NOAA homepage National Weather Service
 Headquarters Office   NWS logo
NWS Office of the Chief Information Officer/Telecommunication Operations Center
 
   

Current Weather Conditions:
Station name not available

(

Conditions at

2014.07.31 1300 UTC
Wind from the E (100 degrees) at 9 MPH (8 KT)
Visibility greater than 7 mile(s)
Sky conditions partly cloudy
Temperature 78 F (26 C)
Dew Point 75 F (24 C)
Relative Humidity 88%
Pressure (altimeter) 29.83 in. Hg (1010 hPa)
ob WIDD 311300Z AUTO VRB02KT 9999NDV SCT240 26/24 Q1010 METAR WADD 311300Z 10008KT 9999 SCT017 26/23 Q1012 NOSIG

24 Hour Summary

Time
EDT (UTC)
Temperature
F (C)
Dew Point
F (C)
Pressure
Inches (hPa)
Wind
MPH
Weather
Latest 9 AM (13) Jul 31 78 (26) 75 (24) 29.83 (1010) E 9
8 AM (12) Jul 31 77 (25) 75 (24) 29.83 (1010) SW 3
7 AM (11) Jul 31 80 (27) 73 (23) 29.80 (1009) SW 6
6 AM (10) Jul 31 84 (29) 71 (22) 29.77 (1008) SSW 10
5 AM (9) Jul 31 84 (29) 75 (24) 29.77 (1008) SW 12
4 AM (8) Jul 31 84 (29) 75 (24) 29.77 (1008) SW 9
3 AM (7) Jul 31 84 (29) 75 (24) 29.80 (1009) SW 12
2 AM (6) Jul 31 84 (29) 75 (24) 29.83 (1010) S 18
1 AM (5) Jul 31 82 (28) 77 (25) 29.83 (1010) SSW 15
Midnight (4) Jul 31 82 (28) 77 (25) 29.85 (1011) SSW 10
11 PM (3) Jul 30 80 (27) 77 (25) 29.85 (1011) SSW 7
10 PM (2) Jul 30 78 (26) 77 (25) 29.88 (1012) SW 10
9 PM (1) Jul 30 78 (26) 77 (25) 29.85 (1011) WSW 6
8 PM (0) Jul 30 77 (25) 75 (24) 29.85 (1011) S 5
7 PM (23) Jul 30 75 (24) 73 (23) 29.83 (1010) WSW 3
6 PM (22) Jul 30 75 (24) 73 (23) 29.83 (1010) W 3 light rain
5 PM (21) Jul 30 78 (26) 77 (25) 29.83 (1010) SSW 3
4 PM (20) Jul 30 77 (25) 77 (25) 29.80 (1009) WSW 2
3 PM (19) Jul 30 77 (25) 77 (25) 29.83 (1010) Calm
2 PM (18) Jul 30 77 (25) 77 (25) 29.83 (1010) WSW 3
1 PM (17) Jul 30 80 (27) 78 (26) 29.83 (1010) Calm
Noon (16) Jul 30 78 (26) 78 (26) 29.85 (1011) SSE 3
11 AM (15) Jul 30 78 (26) 78 (26) 29.85 (1011) Calm
Oldest 10 AM (14) Jul 30 78 (26) 77 (25) 29.85 (1011) Calm
Time
EDT (UTC)
Temperature
F(C)
Dew Point
F(C)
Pressure
Inches(hPa)
Wind
(MPH)
Weather

The information presented here is taken from products produced by the U.S. National Weather Service and other national and international agencies




US Dept of Commerce
National Oceanic and Atmospheric Administration
National Weather Service
1325 East West Highway
Silver Spring, MD 20910
Page Author: NWS Internet Services Team
Disclaimer
Feedback
Privacy Notice
Credits